Time;durP1;ratioP1;P1;durP2;ratioP2;P2;SDS_P1;SDS_P2;PMS_P1;PMS_P2;Temp;Humidity;BMP_temperature;BMP_pressure;BME280_temperature;BME280_humidity;BME280_pressure;Samples;Min_cycle;Max_cycle;Signal;HPM_P1;HPM_P2
2022/03/31 00:00:01;;;;;;;24.40;12.70;;;;;;;2.82;79.59;98986.23;105586;1274;25553;-58
2022/03/31 00:02:32;;;;;;;28.30;14.20;;;;;;;2.81;79.34;98985.34;105695;1271;22575;-58
2022/03/31 00:05:03;;;;;;;28.00;14.20;;;;;;;2.83;79.68;98990.05;105854;1273;22550;-58
2022/03/31 00:07:34;;;;;;;27.80;13.30;;;;;;;2.81;79.60;98986.05;105839;1271;25432;-56
2022/03/31 00:10:08;;;;;;;27.20;12.20;;;;;;;2.81;79.47;98982.89;105957;1271;24018;-58
2022/03/31 00:12:40;;;;;;;22.00;11.80;;;;;;;2.83;79.63;98981.88;106006;1271;22544;-57
2022/03/31 00:15:12;;;;;;;25.20;12.70;;;;;;;2.82;79.59;98983.16;105810;1271;23205;-58
2022/03/31 00:17:44;;;;;;;25.40;12.40;;;;;;;2.82;79.65;98981.35;106080;1271;22596;-57
2022/03/31 00:20:16;;;;;;;27.30;13.10;;;;;;;2.80;79.64;98977.17;105906;1271;25449;-54
2022/03/31 00:22:48;;;;;;;27.50;13.80;;;;;;;2.79;79.69;98976.05;106244;1271;25228;-57
2022/03/31 00:25:19;;;;;;;24.90;11.90;;;;;;;2.75;79.82;98980.76;106014;1271;22607;-55
2022/03/31 00:27:50;;;;;;;26.50;13.60;;;;;;;2.71;79.73;98981.09;106240;1271;22484;-57
2022/03/31 00:30:22;;;;;;;24.30;13.10;;;;;;;2.71;79.80;98978.27;105777;1271;25512;-57
2022/03/31 00:32:59;;;;;;;25.70;13.80;;;;;;;2.71;79.91;98979.38;105992;1271;23031;-58
2022/03/31 00:35:33;;;;;;;26.70;14.10;;;;;;;2.71;79.87;98978.52;105955;1271;22534;-58
2022/03/31 00:38:07;;;;;;;26.30;13.00;;;;;;;2.71;80.07;98977.38;106126;1271;22612;-55
2022/03/31 00:40:39;;;;;;;26.20;14.10;;;;;;;2.70;80.02;98979.72;105616;1271;24309;-57
2022/03/31 00:43:10;;;;;;;30.40;15.60;;;;;;;2.70;79.97;98982.80;105750;1271;24252;-55
2022/03/31 00:45:50;;;;;;;29.00;13.40;;;;;;;2.68;80.21;98981.86;105897;1271;22534;-58
2022/03/31 00:48:22;;;;;;;29.40;14.60;;;;;;;2.67;80.02;98981.48;105689;1271;22542;-54
2022/03/31 00:50:54;;;;;;;30.00;14.50;;;;;;;2.67;80.21;98975.85;105737;1271;22557;-56
2022/03/31 00:53:25;;;;;;;31.30;16.70;;;;;;;2.70;80.05;98975.64;105850;1271;25401;-57
2022/03/31 00:55:58;;;;;;;34.50;16.80;;;;;;;2.69;80.14;98971.17;105821;1271;22553;-56
2022/03/31 00:58:30;;;;;;;31.90;15.80;;;;;;;2.66;80.31;98971.71;105960;1271;24369;-55
2022/03/31 01:01:02;;;;;;;26.30;12.50;;;;;;;2.64;80.24;98973.20;105952;1271;26059;-57
2022/03/31 01:03:35;;;;;;;24.50;12.90;;;;;;;2.61;80.28;98971.67;105791;1271;24267;-56
2022/03/31 01:06:07;;;;;;;21.90;10.20;;;;;;;2.58;80.27;98973.23;105673;1271;22560;-57
2022/03/31 01:08:38;;;;;;;26.00;12.60;;;;;;;2.58;80.46;98973.92;105714;1271;22603;-57
2022/03/31 01:11:10;;;;;;;26.70;13.20;;;;;;;2.56;80.54;98972.02;105896;1271;24374;-56
2022/03/31 01:13:43;;;;;;;26.90;12.50;;;;;;;2.53;80.50;98968.77;105966;1271;22525;-57
2022/03/31 01:16:15;;;;;;;27.80;13.80;;;;;;;2.51;80.71;98967.11;105725;1271;25349;-57
2022/03/31 01:18:46;;;;;;;28.10;14.80;;;;;;;2.49;80.76;98962.18;105790;1271;22519;-58
2022/03/31 01:21:19;;;;;;;28.40;14.00;;;;;;;2.50;80.81;98963.84;105876;1271;22698;-56
2022/03/31 01:23:54;;;;;;;22.90;11.20;;;;;;;2.52;80.81;98961.11;105807;1271;25963;-58
2022/03/31 01:26:25;;;;;;;28.30;15.40;;;;;;;2.50;80.79;98961.76;105703;1271;25261;-58
2022/03/31 01:28:57;;;;;;;26.50;12.30;;;;;;;2.51;80.92;98960.84;105688;1271;22534;-56
2022/03/31 01:31:28;;;;;;;26.80;13.50;;;;;;;2.51;80.93;98962.23;105696;1271;22543;-57
2022/03/31 01:33:59;;;;;;;28.70;15.00;;;;;;;2.51;81.03;98966.71;105673;1272;25358;-57
2022/03/31 01:36:31;;;;;;;28.50;15.10;;;;;;;2.51;81.03;98965.85;105833;1271;23549;-57
2022/03/31 01:39:02;;;;;;;29.20;15.10;;;;;;;2.51;81.08;98960.90;105790;1271;23498;-59
2022/03/31 01:41:34;;;;;;;36.60;17.70;;;;;;;2.54;81.07;98960.68;105814;1271;24407;-59
2022/03/31 01:44:06;;;;;;;30.10;16.20;;;;;;;2.57;81.13;98957.51;105666;1271;22487;-56
2022/03/31 01:46:37;;;;;;;31.50;16.00;;;;;;;2.57;81.12;98956.08;105775;1272;22564;-58
2022/03/31 01:49:10;;;;;;;32.40;15.90;;;;;;;2.57;81.17;98956.56;105651;1271;23031;-58
2022/03/31 01:51:41;;;;;;;36.30;16.50;;;;;;;2.56;81.28;98957.08;105652;1271;22610;-58
2022/03/31 01:54:14;;;;;;;35.10;16.20;;;;;;;2.57;81.26;98955.09;105666;1271;25325;-57
2022/03/31 01:56:48;;;;;;;35.10;15.50;;;;;;;2.58;81.26;98958.16;105643;1271;22528;-58
2022/03/31 01:59:19;;;;;;;31.20;14.60;;;;;;;2.60;81.29;98962.30;105735;1271;22558;-57
2022/03/31 02:01:52;;;;;;;35.90;18.30;;;;;;;2.59;81.42;98961.44;105642;1271;23745;-57
2022/03/31 02:04:23;;;;;;;39.50;18.40;;;;;;;2.61;81.44;98961.51;105736;1271;24240;-58
2022/03/31 02:06:54;;;;;;;33.60;16.10;;;;;;;2.64;81.44;98963.59;105829;1271;25248;-57
2022/03/31 02:09:26;;;;;;;31.00;15.70;;;;;;;2.65;81.35;98960.96;105681;1271;22543;-56
2022/03/31 02:11:58;;;;;;;33.30;15.50;;;;;;;2.68;81.36;98962.96;105627;1271;22538;-58
2022/03/31 02:14:30;;;;;;;30.40;13.90;;;;;;;2.68;81.28;98963.27;105716;1271;25376;-56
2022/03/31 02:17:02;;;;;;;30.60;16.40;;;;;;;2.67;81.27;98966.08;106481;1261;22746;-64
2022/03/31 02:19:33;;;;;;;33.40;17.10;;;;;;;2.64;81.21;98971.62;106035;1274;25340;-64
2022/03/31 02:22:06;;;;;;;32.30;16.30;;;;;;;2.64;81.31;98966.05;107915;1273;22573;-65
2022/03/31 02:24:38;;;;;;;36.60;16.80;;;;;;;2.67;81.38;98966.39;105635;1274;22528;-63
2022/03/31 02:27:12;;;;;;;31.50;17.00;;;;;;;2.67;81.32;98964.94;105813;1274;25237;-64
2022/03/31 02:29:44;;;;;;;30.40;16.10;;;;;;;2.65;81.29;98970.81;105687;1273;26122;-64
2022/03/31 02:32:16;;;;;;;34.10;14.90;;;;;;;2.63;81.36;98971.27;105794;1273;25338;-65
2022/03/31 02:34:47;;;;;;;36.00;17.20;;;;;;;2.60;81.27;98971.02;105554;1271;25241;-64
2022/03/31 02:37:19;;;;;;;32.20;16.00;;;;;;;2.60;81.39;98971.79;107827;1272;22561;-64
2022/03/31 02:39:50;;;;;;;35.40;16.80;;;;;;;2.61;81.47;98969.92;106650;1274;24059;-65
2022/03/31 02:42:22;;;;;;;32.60;16.50;;;;;;;2.59;81.49;98964.75;105773;1274;22552;-66
2022/03/31 02:44:53;;;;;;;31.90;17.50;;;;;;;2.55;81.53;98961.77;105747;1273;22544;-66
2022/03/31 02:47:25;;;;;;;33.50;18.60;;;;;;;2.54;81.46;98958.11;105698;1274;24266;-66
2022/03/31 02:49:56;;;;;;;30.90;16.60;;;;;;;2.55;81.50;98958.25;105794;1274;25247;-66
2022/03/31 02:55:24;;;;;;;33.50;17.00;;;;;;;2.54;81.48;98961.98;105578;1274;22552;-66
2022/03/31 02:55:29;;;;;;;32.50;16.60;;;;;;;2.52;81.46;98956.38;105599;1274;24296;-64
2022/03/31 02:58:02;;;;;;;31.00;16.80;;;;;;;2.53;81.54;98955.78;105685;1274;24278;-65
2022/03/31 03:00:36;;;;;;;35.70;17.90;;;;;;;2.51;81.31;98959.24;105787;1274;22620;-64
2022/03/31 03:03:08;;;;;;;31.70;17.60;;;;;;;2.52;81.44;98960.73;105765;1274;25396;-65
2022/03/31 03:05:42;;;;;;;31.30;16.50;;;;;;;2.52;81.43;98958.27;105802;1274;22564;-65
2022/03/31 03:08:14;;;;;;;34.40;17.10;;;;;;;2.52;81.37;98956.46;105923;1274;24428;-64
2022/03/31 03:10:47;;;;;;;26.40;12.30;;;;;;;2.52;81.40;98956.30;105775;1271;25315;-65
2022/03/31 03:13:19;;;;;;;28.10;13.80;;;;;;;2.49;81.47;98956.64;105860;1274;22541;-65
2022/03/31 03:15:51;;;;;;;36.00;17.70;;;;;;;2.49;81.35;98956.42;105686;1273;22536;-64
2022/03/31 03:18:22;;;;;;;29.50;15.80;;;;;;;2.50;81.48;98953.64;105693;1274;22669;-66
2022/03/31 03:20:54;;;;;;;26.90;12.60;;;;;;;2.50;81.26;98955.90;105975;1274;24296;-66
2022/03/31 03:23:25;;;;;;;29.50;14.40;;;;;;;2.46;81.29;98956.30;105898;1274;24296;-66
2022/03/31 03:25:57;;;;;;;32.50;15.90;;;;;;;2.43;81.28;98955.31;105794;1274;22562;-64
2022/03/31 03:28:29;;;;;;;31.40;14.30;;;;;;;2.44;81.41;98957.30;105817;1274;25294;-64
2022/03/31 03:31:01;;;;;;;29.80;15.20;;;;;;;2.44;81.52;98956.05;105854;1274;22610;-64
2022/03/31 03:33:33;;;;;;;30.10;15.70;;;;;;;2.43;81.38;98958.46;106084;1274;22537;-64
2022/03/31 03:36:10;;;;;;;37.80;16.90;;;;;;;2.43;81.52;98954.05;105929;1273;25327;-64
2022/03/31 03:38:42;;;;;;;31.50;16.10;;;;;;;2.41;81.48;98950.50;105789;1273;25245;-66
2022/03/31 03:41:14;;;;;;;31.40;16.20;;;;;;;2.41;81.44;98949.12;105808;1274;22538;-66
2022/03/31 03:43:46;;;;;;;33.60;15.30;;;;;;;2.41;81.53;98946.73;105720;1274;25439;-66
2022/03/31 03:46:18;;;;;;;29.70;15.00;;;;;;;2.41;81.58;98947.38;105719;1274;26596;-66
2022/03/31 03:48:49;;;;;;;32.90;16.30;;;;;;;2.37;81.52;98950.59;105620;1274;25342;-66
2022/03/31 03:51:20;;;;;;;29.10;15.50;;;;;;;2.36;81.44;98949.22;105657;1274;25462;-64
2022/03/31 03:53:53;;;;;;;27.20;14.60;;;;;;;2.36;81.32;98952.63;105852;1274;25008;-67
2022/03/31 03:56:28;;;;;;;34.20;17.80;;;;;;;2.33;81.40;98954.70;105721;1273;22528;-65
2022/03/31 03:58:59;;;;;;;30.80;16.60;;;;;;;2.32;81.56;98955.21;105725;1273;23331;-65
2022/03/31 04:01:30;;;;;;;30.90;16.10;;;;;;;2.33;81.51;98959.19;105543;1273;25318;-65
2022/03/31 04:04:02;;;;;;;27.60;14.20;;;;;;;2.34;81.41;98958.23;105767;1274;23922;-65
2022/03/31 04:06:33;;;;;;;28.50;15.20;;;;;;;2.34;81.31;98963.33;105632;1274;24325;-66
2022/03/31 04:09:05;;;;;;;31.30;15.60;;;;;;;2.33;81.52;98960.27;105708;1274;22589;-66
2022/03/31 04:11:36;;;;;;;27.60;13.20;;;;;;;2.31;81.45;98960.05;105674;1271;22538;-64
2022/03/31 04:14:08;;;;;;;33.60;17.30;;;;;;;2.26;81.43;98956.79;105652;1274;22546;-63
2022/03/31 04:16:39;;;;;;;32.30;16.50;;;;;;;2.24;81.56;98957.80;105553;1274;24980;-65
2022/03/31 04:19:10;;;;;;;28.20;13.60;;;;;;;2.25;81.52;98956.50;105486;1274;22548;-66
2022/03/31 04:21:42;;;;;;;33.80;17.20;;;;;;;2.27;81.51;98956.91;105498;1274;22554;-65
2022/03/31 04:24:14;;;;;;;36.40;20.00;;;;;;;2.28;81.44;98959.84;106319;1274;22556;-65
2022/03/31 04:26:45;;;;;;;35.50;18.60;;;;;;;2.28;81.40;98959.23;105776;1274;24220;-56
2022/03/31 04:29:17;;;;;;;33.30;19.60;;;;;;;2.28;81.37;98959.70;105735;1274;22577;-57
2022/03/31 04:31:49;;;;;;;37.10;18.20;;;;;;;2.28;81.38;98959.46;105656;1274;22593;-54
2022/03/31 04:34:21;;;;;;;36.80;20.20;;;;;;;2.30;81.32;98967.50;105580;1274;24325;-57
2022/03/31 04:36:52;;;;;;;36.50;20.10;;;;;;;2.28;81.40;98974.33;105713;1274;24252;-56
2022/03/31 04:39:24;;;;;;;37.40;19.30;;;;;;;2.27;81.44;98975.70;105910;1274;22483;-56
2022/03/31 04:41:57;;;;;;;35.10;19.80;;;;;;;2.28;81.37;98971.75;105622;1272;25361;-58
2022/03/31 04:44:29;;;;;;;33.20;18.40;;;;;;;2.28;81.59;98973.71;106160;1274;22529;-57
2022/03/31 04:47:00;;;;;;;34.90;18.70;;;;;;;2.27;81.67;98972.98;105530;1274;23371;-57
2022/03/31 04:49:31;;;;;;;36.00;19.90;;;;;;;2.27;81.67;98976.65;105721;1274;22587;-58
2022/03/31 04:52:04;;;;;;;35.50;18.70;;;;;;;2.29;81.67;98973.27;105511;1272;25409;-55
2022/03/31 04:54:36;;;;;;;34.70;18.90;;;;;;;2.28;81.61;98975.06;106599;1271;22614;-58
2022/03/31 04:57:08;;;;;;;30.70;16.50;;;;;;;2.27;81.85;98975.23;105738;1274;22550;-57
2022/03/31 04:59:40;;;;;;;32.30;17.50;;;;;;;2.26;81.73;98975.35;109666;1273;22505;-56
2022/03/31 05:02:12;;;;;;;33.70;18.50;;;;;;;2.26;81.80;98975.58;109660;1272;22442;-55
2022/03/31 05:04:45;;;;;;;38.40;17.80;;;;;;;2.24;81.80;98977.16;106623;1272;25549;-59
2022/03/31 05:07:18;;;;;;;34.00;16.40;;;;;;;2.25;81.83;98979.09;109650;1271;22412;-55
2022/03/31 05:09:50;;;;;;;36.90;19.10;;;;;;;2.23;81.83;98980.98;107622;1273;24334;-57
2022/03/31 05:12:22;;;;;;;31.90;17.90;;;;;;;2.24;81.78;98980.38;106194;1271;25305;-57
2022/03/31 05:14:54;;;;;;;31.30;16.90;;;;;;;2.26;81.80;98986.91;105617;1274;22532;-56
2022/03/31 05:17:32;;;;;;;34.40;18.70;;;;;;;2.26;81.91;98989.77;105560;1271;26611;-57
2022/03/31 05:20:06;;;;;;;32.80;16.80;;;;;;;2.23;81.88;98997.42;105590;1274;26818;-55
2022/03/31 05:22:39;;;;;;;40.50;21.30;;;;;;;2.20;81.74;98997.30;105624;1274;23399;-57
2022/03/31 05:25:12;;;;;;;77.60;34.50;;;;;;;2.18;81.74;98994.23;105696;1273;22666;-59
2022/03/31 05:27:47;;;;;;;50.30;24.40;;;;;;;2.15;81.82;98994.61;105794;1274;23009;-58
2022/03/31 05:30:20;;;;;;;42.00;21.00;;;;;;;2.13;81.87;98996.62;105598;1274;25669;-57
2022/03/31 05:32:53;;;;;;;33.00;17.10;;;;;;;2.14;81.82;98994.31;106037;1272;28034;-57
2022/03/31 05:35:27;;;;;;;33.60;17.40;;;;;;;2.11;81.99;98992.06;105996;1273;22556;-58
2022/03/31 05:37:58;;;;;;;33.30;16.40;;;;;;;2.10;81.98;98997.14;105847;1274;24471;-54
2022/03/31 05:40:31;;;;;;;33.50;16.40;;;;;;;2.08;81.89;98999.11;105925;1273;22554;-54
2022/03/31 05:43:03;;;;;;;30.00;14.50;;;;;;;2.06;82.01;99000.06;105831;1274;22988;-55
2022/03/31 05:45:34;;;;;;;60.70;23.70;;;;;;;2.04;82.08;98998.32;105787;1271;26556;-57
2022/03/31 05:48:06;;;;;;;56.30;24.20;;;;;;;2.02;82.06;98996.84;105750;1274;22651;-54
2022/03/31 05:50:38;;;;;;;80.50;34.00;;;;;;;2.02;82.22;98997.46;105627;1274;22543;-54
2022/03/31 05:53:10;;;;;;;65.00;25.50;;;;;;;2.02;82.28;98999.76;106026;1274;22534;-56
2022/03/31 05:55:43;;;;;;;60.00;25.90;;;;;;;2.01;82.15;98997.11;105614;1274;22628;-54
2022/03/31 05:58:15;;;;;;;70.50;32.60;;;;;;;1.98;82.20;99000.27;105963;1274;22584;-62
2022/03/31 06:00:47;;;;;;;44.20;21.10;;;;;;;2.00;82.23;98999.34;105764;1274;22531;-58
2022/03/31 06:03:21;;;;;;;73.50;30.40;;;;;;;2.01;82.18;99002.38;105664;1274;22757;-56
2022/03/31 06:05:53;;;;;;;54.80;25.90;;;;;;;1.99;82.17;99000.16;105640;1274;25405;-54
2022/03/31 06:08:25;;;;;;;73.10;32.00;;;;;;;1.99;82.01;99001.66;105873;1274;22582;-57
2022/03/31 06:10:57;;;;;;;76.10;31.80;;;;;;;1.99;82.20;99000.95;105843;1274;23066;-54
2022/03/31 06:13:28;;;;;;;102.00;38.60;;;;;;;1.99;82.13;99002.94;105758;1274;22735;-54
2022/03/31 06:16:00;;;;;;;83.80;35.50;;;;;;;1.97;82.12;98995.63;106859;1273;22548;-54
2022/03/31 06:18:33;;;;;;;67.60;28.10;;;;;;;1.96;82.17;98997.61;105687;1274;22623;-59
2022/03/31 06:21:06;;;;;;;50.00;22.40;;;;;;;1.91;82.23;99004.55;105950;1272;25330;-53
2022/03/31 06:23:38;;;;;;;78.80;32.10;;;;;;;1.86;82.17;99008.61;105988;1274;25395;-55
2022/03/31 06:26:10;;;;;;;74.50;33.00;;;;;;;1.87;82.30;99017.99;106002;1271;22710;-57
2022/03/31 06:28:41;;;;;;;67.10;29.80;;;;;;;1.90;82.35;99023.27;105981;1274;22564;-56
2022/03/31 06:31:13;;;;;;;76.30;34.00;;;;;;;1.92;82.40;99025.77;106013;1274;22681;-55
2022/03/31 06:33:45;;;;;;;47.80;22.60;;;;;;;1.93;82.26;99023.44;105960;1274;22746;-59
2022/03/31 06:36:17;;;;;;;51.30;22.50;;;;;;;1.91;82.08;99021.10;105909;1274;24171;-56
2022/03/31 06:38:49;;;;;;;44.50;23.20;;;;;;;1.88;81.99;99020.33;105813;1271;25579;-54
2022/03/31 06:41:22;;;;;;;48.30;20.80;;;;;;;1.88;82.06;99018.60;105998;1272;25742;-53
2022/03/31 06:43:54;;;;;;;72.60;30.70;;;;;;;1.86;82.12;99015.84;105853;1274;26607;-56
2022/03/31 06:46:26;;;;;;;49.20;20.70;;;;;;;1.85;82.10;99013.77;105883;1271;22558;-57
2022/03/31 06:48:58;;;;;;;47.60;20.30;;;;;;;1.85;82.21;99015.47;105810;1273;22622;-55
2022/03/31 06:51:29;;;;;;;64.10;26.90;;;;;;;1.85;82.29;99021.77;106090;1274;22538;-55
2022/03/31 06:54:02;;;;;;;43.80;23.50;;;;;;;1.83;82.12;99024.52;105868;1273;22539;-56
2022/03/31 06:56:35;;;;;;;60.30;26.90;;;;;;;1.84;82.24;99021.04;105882;1274;22529;-58
2022/03/31 06:59:07;;;;;;;50.50;24.50;;;;;;;1.86;82.34;99017.80;105938;1274;22707;-59
2022/03/31 07:01:38;;;;;;;49.80;25.20;;;;;;;1.87;82.05;99017.71;106047;1274;22553;-56
2022/03/31 07:04:11;;;;;;;46.30;23.10;;;;;;;1.87;82.08;99019.50;106018;1274;24279;-56
2022/03/31 07:06:43;;;;;;;46.90;23.20;;;;;;;1.89;82.14;99030.98;105970;1274;25476;-57
2022/03/31 07:09:14;;;;;;;53.40;23.00;;;;;;;1.90;82.00;99027.95;105940;1274;24093;-55
2022/03/31 07:11:46;;;;;;;50.40;25.20;;;;;;;1.88;81.78;99023.71;105757;1274;22668;-61
2022/03/31 07:14:18;;;;;;;45.00;22.40;;;;;;;1.88;81.94;99019.62;105801;1274;22687;-57
2022/03/31 07:16:51;;;;;;;78.40;34.80;;;;;;;1.88;81.84;99017.10;105932;1272;25564;-55
2022/03/31 07:19:23;;;;;;;89.90;38.50;;;;;;;1.86;81.90;99005.88;105862;1274;22871;-57
2022/03/31 07:21:56;;;;;;;77.70;35.30;;;;;;;1.85;81.79;99005.20;105920;1274;22554;-55
2022/03/31 07:24:28;;;;;;;102.50;41.50;;;;;;;1.84;81.69;99007.28;105830;1271;25468;-59
2022/03/31 07:27:01;;;;;;;113.10;48.30;;;;;;;1.81;81.64;99008.02;105738;1271;22553;-54
2022/03/31 07:29:33;;;;;;;137.00;57.70;;;;;;;1.82;81.76;99011.73;105828;1274;22630;-59
2022/03/31 07:32:07;;;;;;;111.40;47.80;;;;;;;1.82;81.73;99014.20;105872;1272;24191;-57
2022/03/31 07:34:39;;;;;;;68.40;30.80;;;;;;;1.82;81.62;99014.65;105919;1273;25189;-57
2022/03/31 07:37:11;;;;;;;57.40;26.10;;;;;;;1.85;81.70;99010.30;105916;1274;22560;-57
2022/03/31 07:39:45;;;;;;;97.30;41.60;;;;;;;1.88;81.78;99016.71;105919;1274;22864;-56
2022/03/31 07:42:19;;;;;;;51.20;23.30;;;;;;;1.90;81.52;99019.71;105891;1272;22524;-55
2022/03/31 07:44:51;;;;;;;61.80;28.40;;;;;;;1.91;81.61;99015.42;105901;1274;26741;-55
2022/03/31 07:47:26;;;;;;;46.30;23.40;;;;;;;1.92;81.59;99017.28;105836;1273;25348;-55
2022/03/31 07:49:58;;;;;;;48.90;24.30;;;;;;;1.91;81.40;99023.83;105860;1274;25289;-55
2022/03/31 07:52:31;;;;;;;41.20;20.60;;;;;;;1.90;81.50;99026.48;105928;1273;24410;-55
2022/03/31 07:55:03;;;;;;;39.40;19.90;;;;;;;1.92;81.60;99027.95;105963;1274;22611;-59
2022/03/31 07:57:36;;;;;;;35.00;17.00;;;;;;;1.95;81.56;99030.83;105741;1274;22544;-52
2022/03/31 08:00:11;;;;;;;41.40;21.30;;;;;;;1.96;81.44;99031.73;105828;1273;22625;-58
2022/03/31 08:02:45;;;;;;;42.50;19.50;;;;;;;1.98;81.66;99029.15;106107;1270;22681;-57
2022/03/31 08:05:20;;;;;;;36.80;19.00;;;;;;;2.00;81.72;99034.09;106100;1269;22545;-54
2022/03/31 08:07:53;;;;;;;33.80;16.10;;;;;;;2.03;81.50;99035.11;106078;1270;25407;-58
2022/03/31 08:10:25;;;;;;;60.00;24.50;;;;;;;2.06;81.46;99034.43;106123;1268;24267;-57
2022/03/31 08:12:58;;;;;;;37.90;17.60;;;;;;;2.06;81.34;99033.81;106095;1271;25136;-57
2022/03/31 08:15:29;;;;;;;89.80;34.10;;;;;;;2.06;81.20;99029.23;106150;1268;22616;-57
2022/03/31 08:18:01;;;;;;;73.70;27.60;;;;;;;2.07;81.29;99029.77;106758;1258;23857;-57
2022/03/31 08:20:33;;;;;;;45.70;19.70;;;;;;;2.09;81.28;99034.61;106506;1268;22582;-53
2022/03/31 08:23:05;;;;;;;52.30;23.00;;;;;;;2.10;81.24;99036.01;106482;1271;22607;-56
2022/03/31 08:25:37;;;;;;;33.80;15.80;;;;;;;2.12;81.42;99034.92;106557;1268;22575;-56
2022/03/31 08:28:09;;;;;;;33.80;14.80;;;;;;;2.14;81.16;99039.02;106528;1271;24078;-56
2022/03/31 08:30:41;;;;;;;40.90;18.60;;;;;;;2.15;81.12;99043.38;106607;1271;22611;-55
2022/03/31 08:33:13;;;;;;;35.90;16.60;;;;;;;2.17;81.31;99044.14;106631;1271;24262;-55
2022/03/31 08:35:45;;;;;;;43.40;17.90;;;;;;;2.20;81.25;99044.56;106339;1270;24032;-55
2022/03/31 08:38:17;;;;;;;36.20;17.10;;;;;;;2.22;81.11;99041.15;106518;1271;26650;-55
2022/03/31 08:40:50;;;;;;;38.00;16.30;;;;;;;2.25;81.24;99047.46;106426;1268;25433;-53
2022/03/31 08:43:23;;;;;;;33.10;13.90;;;;;;;2.29;81.21;99046.14;106518;1268;25337;-52
2022/03/31 08:45:57;;;;;;;35.10;15.90;;;;;;;2.32;81.13;99042.14;106558;1271;22708;-56
2022/03/31 08:48:29;;;;;;;38.40;15.60;;;;;;;2.34;80.95;99042.92;106651;1269;22489;-56
2022/03/31 08:51:01;;;;;;;39.10;17.10;;;;;;;2.36;80.90;99040.17;106341;1270;22687;-56
2022/03/31 08:53:32;;;;;;;45.70;19.80;;;;;;;2.36;80.96;99037.18;106118;1268;22560;-55
2022/03/31 08:56:04;;;;;;;35.70;14.80;;;;;;;2.37;81.14;99034.15;106007;1271;22665;-56
2022/03/31 08:58:36;;;;;;;59.50;22.00;;;;;;;2.40;81.03;99034.85;106082;1271;24425;-56
2022/03/31 09:01:08;;;;;;;55.90;23.60;;;;;;;2.42;80.95;99031.36;106011;1268;22658;-57
2022/03/31 09:03:41;;;;;;;50.40;22.70;;;;;;;2.46;81.20;99035.14;106053;1270;23068;-57
2022/03/31 09:06:23;;;;;;;38.20;17.00;;;;;;;2.51;80.99;99031.42;106026;1270;24415;-58
2022/03/31 09:08:59;;;;;;;41.10;17.70;;;;;;;2.54;80.95;99036.04;106084;1270;25390;-56
2022/03/31 09:11:32;;;;;;;40.70;19.20;;;;;;;2.57;81.06;99034.56;106077;1268;25350;-54
2022/03/31 09:14:07;;;;;;;40.40;19.40;;;;;;;2.60;80.79;99037.54;106115;1271;25352;-54
2022/03/31 09:16:40;;;;;;;64.90;29.70;;;;;;;2.63;80.98;99042.45;106081;1270;22526;-54
2022/03/31 09:19:13;;;;;;;58.50;29.80;;;;;;;2.67;80.99;99047.73;106201;1271;22534;-54
2022/03/31 09:21:54;;;;;;;46.00;22.20;;;;;;;2.69;80.82;99053.92;106103;1271;25362;-64
2022/03/31 09:24:27;;;;;;;40.00;19.00;;;;;;;2.71;80.71;99053.54;106065;1271;22665;-57
2022/03/31 09:27:01;;;;;;;46.40;20.90;;;;;;;2.73;80.73;99050.23;106180;1269;22667;-53
2022/03/31 09:29:34;;;;;;;49.60;22.60;;;;;;;2.75;80.66;99045.64;106121;1271;25486;-57
2022/03/31 09:32:12;;;;;;;40.50;18.70;;;;;;;2.79;80.73;99046.45;106050;1268;22542;-57
2022/03/31 09:34:47;;;;;;;43.90;20.60;;;;;;;2.82;80.70;99046.16;106174;1270;24331;-57
2022/03/31 09:37:19;;;;;;;42.60;21.20;;;;;;;2.85;80.73;99044.44;106043;1270;25561;-58
2022/03/31 09:39:58;;;;;;;38.90;19.60;;;;;;;2.89;80.69;99044.91;106038;1270;24331;-55
2022/03/31 09:42:31;;;;;;;37.40;16.80;;;;;;;2.92;80.48;99044.73;106247;1271;25535;-57
2022/03/31 09:45:04;;;;;;;40.40;19.10;;;;;;;2.92;80.17;99043.76;105782;1271;22548;-58
2022/03/31 09:47:48;;;;;;;42.90;19.40;;;;;;;2.93;80.32;99042.88;106025;1270;25490;-58
2022/03/31 09:50:20;;;;;;;43.60;21.50;;;;;;;2.94;80.19;99037.23;106018;1268;25326;-58
2022/03/31 09:52:54;;;;;;;43.60;21.80;;;;;;;2.96;80.07;99035.20;106023;1270;25244;-58
2022/03/31 09:55:27;;;;;;;43.00;21.20;;;;;;;2.97;80.25;99029.70;106038;1268;22542;-56
2022/03/31 09:58:00;;;;;;;38.80;18.50;;;;;;;2.99;80.20;99030.17;105834;1271;416258;-57
2022/03/31 10:00:33;;;;;;;41.80;20.40;;;;;;;3.02;80.25;99027.37;106214;1268;24253;-58
2022/03/31 10:03:06;;;;;;;40.20;17.70;;;;;;;3.05;80.30;99030.61;106077;1271;22546;-57
2022/03/31 10:05:39;;;;;;;28.30;13.40;;;;;;;3.08;79.99;99030.13;106062;1271;22608;-57
2022/03/31 10:08:12;;;;;;;36.00;16.70;;;;;;;3.09;79.91;99027.55;105989;1268;25620;-55
2022/03/31 10:10:46;;;;;;;39.50;18.90;;;;;;;3.09;79.61;99029.98;105982;1268;25508;-54
2022/03/31 10:13:24;;;;;;;42.00;18.50;;;;;;;3.11;79.62;99030.61;106264;1270;22540;-58
2022/03/31 10:16:01;;;;;;;36.20;15.40;;;;;;;3.14;79.80;99023.80;106221;1270;22846;-55
2022/03/31 10:18:32;;;;;;;36.50;17.70;;;;;;;3.18;79.77;99029.22;106222;1268;22582;-55
2022/03/31 10:21:04;;;;;;;37.50;17.60;;;;;;;3.21;79.79;99027.66;106215;1270;23003;-58
2022/03/31 10:26:40;;;;;;;38.50;17.80;;;;;;;3.29;79.52;99029.75;105680;1274;22556;-59
2022/03/31 10:29:15;;;;;;;37.30;18.90;;;;;;;3.33;79.56;99028.98;105932;1275;22669;-57
2022/03/31 10:31:47;;;;;;;38.50;19.00;;;;;;;3.37;79.63;99028.16;105929;1274;24253;-59
2022/03/31 10:34:20;;;;;;;37.10;20.00;;;;;;;3.42;79.59;99024.39;105873;1274;24908;-57
2022/03/31 10:36:52;;;;;;;39.30;18.50;;;;;;;3.45;79.39;99016.88;105917;1274;22660;-59
2022/03/31 10:39:26;;;;;;;36.90;18.00;;;;;;;3.48;79.28;99014.14;105996;1274;23040;-58
2022/03/31 10:42:07;;;;;;;34.80;16.20;;;;;;;3.50;79.28;99011.70;106101;1274;26521;-55
2022/03/31 10:44:38;;;;;;;41.60;19.10;;;;;;;3.52;79.39;99008.11;105864;1274;25307;-56
2022/03/31 10:47:12;;;;;;;39.40;18.50;;;;;;;3.54;79.14;99007.80;105971;1274;24410;-59
2022/03/31 10:49:54;;;;;;;43.60;20.40;;;;;;;3.54;79.14;99001.63;105847;1274;25228;-57
2022/03/31 10:52:27;;;;;;;47.70;24.90;;;;;;;3.57;79.12;98995.28;105889;1274;22682;-59
2022/03/31 10:55:10;;;;;;;34.40;17.10;;;;;;;3.58;79.13;98989.64;106030;1274;22540;-57
2022/03/31 10:57:45;;;;;;;54.40;23.50;;;;;;;3.58;78.66;98990.05;106001;1270;22551;-57
2022/03/31 11:00:18;;;;;;;66.90;29.80;;;;;;;3.56;78.75;98989.25;106636;1268;22571;-59
2022/03/31 11:02:52;;;;;;;53.00;23.30;;;;;;;3.59;79.14;98988.61;106568;1270;25389;-60
2022/03/31 11:05:28;;;;;;;82.20;32.60;;;;;;;3.62;78.80;98985.43;106761;1268;22567;-58
2022/03/31 11:08:08;;;;;;;90.70;38.00;;;;;;;3.65;79.26;98982.36;106765;1268;24214;-58
2022/03/31 11:10:49;;;;;;;62.30;26.10;;;;;;;3.74;79.11;98982.69;106674;1268;22538;-57
2022/03/31 11:13:31;;;;;;;47.00;21.30;;;;;;;3.77;78.67;98981.85;106735;1270;22535;-58
2022/03/31 11:16:06;;;;;;;40.70;20.20;;;;;;;3.77;78.54;98982.70;106569;1269;22530;-58
2022/03/31 11:18:38;;;;;;;54.90;24.50;;;;;;;3.76;78.48;98976.73;106645;1270;22754;-59
2022/03/31 11:21:10;;;;;;;67.20;30.30;;;;;;;3.78;78.43;98984.64;106618;1270;25374;-58
2022/03/31 11:23:49;;;;;;;83.10;35.70;;;;;;;3.77;78.42;98983.08;106583;1270;24380;-55
2022/03/31 11:26:28;;;;;;;64.40;30.20;;;;;;;3.79;78.27;98983.66;106602;1270;22609;-57
2022/03/31 11:29:01;;;;;;;53.30;25.90;;;;;;;3.80;78.39;98980.50;106650;1270;22605;-57
2022/03/31 11:31:33;;;;;;;46.80;23.60;;;;;;;3.81;78.26;98977.54;106539;1270;23959;-58
2022/03/31 11:34:15;;;;;;;49.40;22.90;;;;;;;3.80;77.93;98976.20;106675;1270;24191;-57
2022/03/31 11:36:47;;;;;;;39.80;19.30;;;;;;;3.79;78.23;98976.70;106551;1270;22577;-57
2022/03/31 11:39:24;;;;;;;38.80;20.40;;;;;;;3.78;77.87;98978.94;106744;1268;25405;-58
2022/03/31 11:41:56;;;;;;;43.00;22.10;;;;;;;3.78;78.13;98979.13;106653;1270;22582;-57
2022/03/31 11:44:31;;;;;;;46.20;22.00;;;;;;;3.79;78.10;98983.94;106554;1270;25443;-57